ADDS METAR Data INFO
IDs: Format: Raw Decoded Include TAF

Data at: 0353 UTC 18 Oct 2017

KRMG 180253Z AUTO 36003KT 10SM CLR 10/09 A3029 RMK AO2 SLP253 T01000094 53016
KRMG 180153Z AUTO 00000KT 10SM CLR 11/09 A3027 RMK AO2 SLP248 T01060094
KRMG 180053Z AUTO 00000KT 10SM CLR 12/10 A3025 RMK AO2 SLP242 T01220100
KRMG 172353Z AUTO 00000KT 10SM CLR 13/11 A3024 RMK AO2 SLP237 T01330106 10211 20133 55004
KRMG 172253Z AUTO 01003KT 10SM CLR 18/08 A3024 RMK AO2 SLP236 T01830083
KRMG 172153Z AUTO 03006KT 10SM CLR 21/07 A3025 RMK AO2 SLP237 T02060072
KRMG 172053Z AUTO 02005KT 10SM CLR 21/07 A3025 RMK AO2 SLP239 T02110067 56017
KRMG 171953Z AUTO VRB05KT 10SM CLR 21/07 A3026 RMK AO2 SLP241 T02060067
KRMG 171853Z AUTO 11006KT 10SM CLR 21/06 A3027 RMK AO2 SLP246 T02060061
KRMG 171753Z AUTO 04004KT 10SM CLR 19/06 A3030 RMK AO2 SLP256 T01890056 10194 20061 58018
KRMG 171653Z AUTO 07006KT 10SM CLR 18/07 A3034 RMK AO2 SLP268 T01830072
KRMG 171553Z AUTO 10005KT 10SM CLR 17/08 A3036 RMK AO2 SLP274 T01720078
KRMG 171453Z AUTO 07005KT 10SM CLR 14/08 A3036 RMK AO2 SLP276 T01440083 51010
KRMG 171353Z AUTO 01006KT 10SM CLR 11/08 A3036 RMK AO2 SLP276 T01110083
KRMG 171253Z AUTO 03004KT 10SM CLR 09/08 A3034 RMK AO2 SLP270 T00890078
KRMG 171153Z AUTO 07003KT 10SM CLR 06/06 A3033 RMK AO2 SLP267 T00610056 10106 20061 51022
KRMG 171053Z AUTO 06004KT 10SM CLR 07/06 A3031 RMK AO2 SLP260 T00670061
KRMG 170953Z AUTO 04004KT 10SM CLR 07/07 A3028 RMK AO2 SLP251 T00720067
KRMG 170853Z AUTO 36003KT 10SM CLR 08/07 A3026 RMK AO2 SLP243 T00780072 52003
KRMG 170753Z AUTO 00000KT 10SM CLR 08/07 A3026 RMK AO2 SLP242 T00830072
KRMG 170653Z AUTO 00000KT 10SM CLR 09/07 A3026 RMK AO2 SLP241 T00890072
KRMG 170553Z AUTO 01004KT 10SM CLR 11/07 A3025 RMK AO2 SLP240 T01060067 10150 20100 52006
KRMG 170453Z AUTO 03004KT 10SM CLR 11/07 A3025 RMK AO2 SLP238 T01110067 402000106
KRMG 170353Z AUTO 36007KT 10SM CLR 13/07 A3024 RMK AO2 SLP235 T01280067
KRMG 170253Z AUTO 01008KT 10SM CLR 12/07 A3024 RMK AO2 SLP235 T01220072 51016
KRMG 170153Z AUTO 01009KT 10SM CLR 13/08 A3023 RMK AO2 SLP232 T01330078
KRMG 170053Z AUTO 01004KT 10SM CLR 14/07 A3021 RMK AO2 SLP227 T01440072
KRMG 162353Z AUTO 01007KT 10SM CLR 15/07 A3019 RMK AO2 SLP217 T01500072 10200 20150 53015
KRMG 162253Z AUTO 01009KT 10SM CLR 17/08 A3016 RMK AO2 SLP210 T01670078
KRMG 162153Z AUTO 01014G19KT 10SM CLR 19/08 A3015 RMK AO2 SLP204 T01890078
KRMG 162053Z AUTO 02018G23KT 10SM CLR 19/07 A3014 RMK AO2 SLP202 T01940072 56015
KRMG 161953Z AUTO 36015G24KT 10SM CLR 19/07 A3015 RMK AO2 SLP203 T01940072
KRMG 161853Z AUTO 36011G21KT 10SM CLR 19/08 A3016 RMK AO2 SLP206 T01940083
KRMG 161753Z AUTO 35013G18KT 10SM CLR 18/08 A3019 RMK AO2 SLP215 T01830083 10189 20122 58009
KRMG 161653Z AUTO 36012G17KT 10SM CLR 17/08 A3021 RMK AO2 SLP222 T01670083